• Join FlightAware (Why Join?)
  • Login
  • US Flag 
11:28AM EDT


 

Airport Tracker/Info


-or-


 

Live Flight TrackerFlight Track Log ✈ CPT7773 ✈ 14-Oct-2013 ✈ KCOD - KCPR

Flight Track Log - Related Links

Times and Time Zones

All times are in EDT time to prevent confusion due to time zone crossing. See the CPT7773 flight status page for this flight to view local times or setup timezone preferences in your user account.

Time Position Orientation Groundspeed Altitude Reporting Facility
EDT Latitude Longitude Course Direction KTS MPH feet Rate Location/Type
08:10PM 44.5311 -109.0081 120° Southeast 87 100 6,100  Level Salt Lake Center
08:11PM 44.5514 -108.9872 36° Northeast 90 104 7,200 1,020 Climbing Salt Lake Center
08:12PM 44.5625 -108.9544 65° Northeast 93 107 8,300 960 Climbing Salt Lake Center
08:13PM 44.3389 -108.7243 133° Southeast  Level Estimated
08:13PM 44.5508 -108.9094 110° East 108 124 9,200  Level Salt Lake Center
08:14PM 44.3152 -108.6680 120° Southeast  Level FlightAware Approximate
08:14PM 44.5261 -108.8747 135° Southeast 117 135 10,100  Level Salt Lake Center
08:15PM 44.2915 -108.6117 120° Southeast  Level FlightAware Approximate
08:15PM 44.4975 -108.8361 136° Southeast 128 147 10,600  Level Salt Lake Center
08:16PM 44.4639 -108.7794 130° Southeast 144 166 11,400 660 Climbing Salt Lake Center
08:17PM 44.4364 -108.7339 130° Southeast 151 174 12,000 300 Climbing Salt Lake Center
08:18PM 44.4078 -108.6900 132° Southeast 152 175 12,100  Climbing Salt Lake Center
08:19PM 44.3739 -108.6419 135° Southeast 160 184 12,100 -60 Level Salt Lake Center
08:20PM 44.3403 -108.5925 134° Southeast 168 193 12,000 -60 Descending Salt Lake Center
08:21PM 44.3089 -108.5433 132° Southeast 170 196 12,000  Level Salt Lake Center
08:23PM 44.2644 -108.4760 133° Southeast  Level FlightAware Approximate
08:23PM 44.2408 -108.4403 133° Southeast 166 191 12,000  Level Salt Lake Center
08:24PM 44.2103 -108.3947 133° Southeast 165 190 12,100  Climbing Salt Lake Center
08:25PM 44.1789 -108.3483 133° Southeast 164 189 12,100 -60 Level Salt Lake Center
08:27PM 44.1399 -108.2897 133° Southeast  Level FlightAware Approximate
08:27PM 44.1081 -108.2358 133° Southeast 172 198 12,000  Level Denver Center
08:28PM 44.0825 -108.1981 133° Southeast 172 198 12,000  Level Salt Lake Center
08:29PM 44.0519 -108.1506 132° Southeast 170 196 12,100  Climbing Salt Lake Center
08:30PM 44.0139 -108.0925 132° Southeast 169 194 12,000 -60 Descending Salt Lake Center
08:31PM 43.9833 -108.0439 131° Southeast 169 194 12,000 -60 Level Salt Lake Center
08:32PM 43.9514 -107.9972 134° Southeast 168 193 11,900  Descending Salt Lake Center
08:33PM 43.9211 -107.9497 131° Southeast 167 192 12,000  Climbing Salt Lake Center
08:34PM 43.8906 -107.9031 132° Southeast 166 191 12,000  Level Salt Lake Center
08:35PM 43.8594 -107.8561 133° Southeast 165 190 12,000  Level Salt Lake Center
08:36PM 43.8275 -107.8100 134° Southeast 166 191 12,000  Level Salt Lake Center
08:38PM 43.7894 -107.7542 133° Southeast 166 191 12,000  Level Salt Lake Center
08:39PM 43.7575 -107.7078 134° Southeast 166 191 12,000  Level Salt Lake Center
08:40PM 43.7264 -107.6614 133° Southeast 166 191 12,000  Level Salt Lake Center
08:41PM 43.6967 -107.6161 132° Southeast 163 188 12,000  Level Salt Lake Center
08:42PM 43.6664 -107.5719 133° Southeast 161 185 12,000  Level Salt Lake Center
08:43PM 43.6356 -107.5283 134° Southeast 160 184 12,000  Level Salt Lake Center
08:44PM 43.6058 -107.4836 133° Southeast 159 183 12,000  Level Salt Lake Center
08:45PM 43.5694 -107.4303 133° Southeast 159 183 12,000  Level Salt Lake Center
08:46PM 43.5389 -107.3839 132° Southeast 161 185 12,000  Level Salt Lake Center
08:47PM 43.5081 -107.3383 133° Southeast 162 186 12,000  Level Salt Lake Center
08:48PM 43.4767 -107.2939 134° Southeast 162 186 12,000  Level Salt Lake Center
08:49PM 43.4450 -107.2489 134° Southeast 163 188 12,000  Level Salt Lake Center
08:50PM 43.4144 -107.2050 134° Southeast 161 185 12,000  Level Salt Lake Center
08:51PM 43.3836 -107.1594 133° Southeast 162 186 12,000  Level Salt Lake Center
08:52PM 43.3472 -107.1053 133° Southeast 162 186 12,000  Level Salt Lake Center
08:53PM 43.3153 -107.0592 134° Southeast 165 190 12,000  Level Salt Lake Center
08:54PM 43.2825 -107.0122 134° Southeast 169 194 12,000  Level Salt Lake Center
08:55PM 43.2500 -106.9653 134° Southeast 170 196 12,000 -240 Level Salt Lake Center
08:56PM 43.2161 -106.9164 134° Southeast 171 197 11,600 -540 Descending Salt Lake Center
08:57PM 43.1781 -106.8608 133° Southeast 178 205 10,900 -780 Descending Salt Lake Center
08:58PM 43.1444 -106.8142 135° Southeast 179 206 10,100 -840 Descending Salt Lake Center
08:59PM 43.1086 -106.7544 129° Southeast 181 208 9,200 -720 Descending Denver Center
09:00PM 43.0753 -106.7061 133° Southeast 182 209 8,600 -540 Descending Denver Center
09:01PM 43.0417 -106.6583 134° Southeast 181 208 8,100 -300 Descending Denver Center
09:02PM 43.0044 -106.6067 135° Southeast 176 203 8,000 -300 Descending Denver Center
09:03PM 42.9769 -106.5644 132° Southeast 166 191 7,600 -420 Descending Denver Center
09:04PM 42.9294 -106.5419 161° South 177 204 7,200 -300 Descending Denver Center
09:05PM 42.8878 -106.5378 176° South 174 200 7,100 -120 Descending Denver Center